San Angelo, TX

8:47 AM CST on November 22, 2014 (GMT -0600)
Amistad Road | Change Station
CLOSE
Current Station
Personal Weather Station
Location: San Angelo, TX
Elevation: 1886 ft
Nearby Weather Stations

Elev 1886 ft 31.44 °N, 100.49 °W | Updated 2 seconds ago

Overcast
Overcast
63.3 °F
Feels Like 63.3 °F
N
1.0
Wind Variable Wind from SE
Gusts 2.0 mph

Today
High -- | Low -- °F
--% Chance of Precip.
Yesterday
High -- | Low -- °F
Precip. -- in
7:15 AM 5:40 PM
New Moon, 0% visible
Pressure 29.91 in
Visibility 10.0 miles
Clouds Mostly Cloudy 2000 ft
Mostly Cloudy 2500 ft
Overcast 8000 ft
Dew Point 61 °F
Humidity 93%
Rainfall 0.02 in
Snow Depth Not available.
UV 0 out of 12
Pollen 1.30 out of 12
Air Quality Not available.
Flu Activity Not available.
METAR KSJT 221351Z 00000KT 10SM BKN020 BKN025 OVC080 17/16 A2995 RMK AO2 RAE25 SLP129 P0000 T01670156

More Conditions Fewer Conditions

Pressure 29.91 in
Visibility 10.0 miles
Clouds Mostly Cloudy 2000 ft
Mostly Cloudy 2500 ft
Overcast 8000 ft
Dew Point 61 °F
Humidity 93%
Rainfall 0.02 in
Snow Depth Not available.
UV 0 out of 12
Pollen 1.30 out of 12
Air Quality Not available.
Flu Activity Not available.
METAR KSJT 221351Z 00000KT 10SM BKN020 BKN025 OVC080 17/16 A2995 RMK AO2 RAE25 SLP129 P0000 T01670156

More Conditions Fewer Conditions

Nowcast | as of 7:40 am CST on November 22, 2014

Scattered showers will move north across much of west central Texas this morning. The showers will be more numerous over the northern Edwards Plateau and Concho Valley...affecting Sonora...San Angelo and Robert Lee. A few thunderstorms are possible. Expect light to moderate rainfall.

×

10-Day Weather Forecast

Almanac

Astronomy

Nov. 22, 2014 Rise Set
Actual Time
Civil Twilight
Nautical Twilight
Astronomical Twilight
Moon
Length of Visible Light
Length of Day
Tomorrow will be .
, % of the Moon is Illuminated

Today's Extremes

State Highs State Lows

Community

WunderPhotos

Upload Photos

1,772,823 photos uploaded!

WunderBlogs® & News

Nearby

Air Quality

  Air Quality AQ Index Pollutant
Not available.

Snow Depth

Station Depth Elevation

Earthquake Activity

City Distance Mag. Time & Date
Minimum magnitude displayed is 2.5.

Coastal Water Temperatures

Place Temperature

Nearby Weather Stations